Kenneth S. Settoon — WDD7467 — position and weather

sailwx.info

Track history (hours):
 
Tides and Currents Weather Stations Pressure Air Temp Water Temp Dewpoint Dewpoint Depression Visibility Wind Speed Wind Dir Waves Ship Positions

Kenneth S. Settoon

Owner: Settoon Towing, L.L.C., Pierre Part, LA. More information available from US FCC via Universal Licensing System and Coast Guard Vessel Documentation Center.

Last reported at 2018-Apr-26 01:18 UTC. Time now 2018-Apr-26 03:41 UTC.
Position N 29°36' W 090°40'.

Length 14 m; draft 3 m.

Type: Tug. MMSI: 367186840.

Date/timePositionNaut miles runAvg speedWind from/ knotsBaromVisibWave heightAir tempDewpointWater temp
2018-Apr-26 01:18N 29°36' W 090°40'1 3.6
2018-Apr-26 01:00N 29°35' W 090°38'2 0.1
2018-Apr-24 20:52N 29°35' W 090°36'3 6.7
2018-Apr-24 20:25N 29°36' W 090°39'3 6.7
2018-Apr-24 20:01N 29°37' W 090°42'2 4.2
2018-Apr-24 19:30N 29°35' W 090°43'0 0.0
2018-Apr-24 19:01N 29°35' W 090°43'0 0.0
2018-Apr-24 18:30N 29°35' W 090°43'3 5.2
2018-Apr-24 18:00N 29°33' W 090°45'2 3.6
2018-Apr-24 17:27N 29°32' W 090°47'0 0.1
2018-Apr-24 16:20N 29°32' W 090°47'0 0.0
2018-Apr-24 15:10N 29°32' W 090°47'0 2.1
2018-Apr-24 15:00N 29°32' W 090°47'  
2018-Apr-20 00:38N 29°49' W 092°03'1 5.8
2018-Apr-20 00:27N 29°48' W 092°04'3 6.0
2018-Apr-20 00:00N 29°47' W 092°07'3 6.0
2018-Apr-19 23:30N 29°47' W 092°10'3 6.0
2018-Apr-19 23:00N 29°48' W 092°13'2 4.0
2018-Apr-19 22:30N 29°47' W 092°16'4 0.3
2018-Apr-19 12:01N 29°45' W 092°19'0 6.0
2018-Apr-19 12:00N 29°45' W 092°19'3 5.5
2018-Apr-19 11:30N 29°46' W 092°16'3 5.1
2018-Apr-19 11:01N 29°48' W 092°15'3 5.4
2018-Apr-19 10:30N 29°47' W 092°12'1 2.8
2018-Apr-19 10:00N 29°47' W 092°11'3 5.9
2018-Apr-19 09:30N 29°47' W 092°07'71 5.1
2018-Apr-18 19:33N 29°32' W 090°47'1 6.0
2018-Apr-18 19:27N 29°32' W 090°47'2 5.4
2018-Apr-18 19:00N 29°34' W 090°45'2 3.7
2018-Apr-18 18:30N 29°35' W 090°43'0 0.2
2018-Apr-18 18:01N 29°35' W 090°43'0 0.0
2018-Apr-18 17:30N 29°35' W 090°43'0 0.0
2018-Apr-18 17:01N 29°35' W 090°43'0 0.0
2018-Apr-18 16:31N 29°35' W 090°43'0 0.0
2018-Apr-18 16:00N 29°35' W 090°43'0 0.0
2018-Apr-18 15:31N 29°35' W 090°43'0 0.0
2018-Apr-18 15:01N 29°35' W 090°43'0 0.0
2018-Apr-18 14:31N 29°35' W 090°43'0 0.0
2018-Apr-18 14:01N 29°35' W 090°43'0 0.0
2018-Apr-18 13:31N 29°35' W 090°43'0 0.1
2018-Apr-18 13:01N 29°35' W 090°43'2 4.2
2018-Apr-18 12:31N 29°37' W 090°42'2 4.7
2018-Apr-18 12:00N 29°36' W 090°40'0 0.2
2018-Apr-18 11:30N 29°36' W 090°40'0 0.0
2018-Apr-18 10:16N 29°36' W 090°40'0 0.0
2018-Apr-18 09:56N 29°36' W 090°40'0 0.0
2018-Apr-18 09:30N 29°36' W 090°40'0 0.0
2018-Apr-18 09:00N 29°36' W 090°40'0 0.0
2018-Apr-18 08:30N 29°36' W 090°40'0 0.0
2018-Apr-18 08:00N 29°36' W 090°40'0 0.0
2018-Apr-18 07:31N 29°36' W 090°40'0 0.8
2018-Apr-18 06:59N 29°36' W 090°40'2 4.8
2018-Apr-18 06:30N 29°36' W 090°43'3 5.7
2018-Apr-18 06:00N 29°33' W 090°42'3 5.5
2018-Apr-18 05:31N 29°30' W 090°43'3 0.1
2018-Apr-17 07:31N 29°28' W 090°43'1 8.3
2018-Apr-17 07:28N 29°28' W 090°43'4 8.3
2018-Apr-17 07:01N 29°32' W 090°42'3 5.3
2018-Apr-17 06:30N 29°34' W 090°43'1 1.8
2018-Apr-17 06:01N 29°35' W 090°43'2 3.9
2018-Apr-17 05:30N 29°36' W 090°41'1 0.7
2018-Apr-17 03:50N 29°36' W 090°40'1 2.4
2018-Apr-17 03:28N 29°35' W 090°39'  
Track history (hours):
 
Tides and Currents Weather Stations Pressure Air Temp Water Temp Dewpoint Dewpoint Depression Visibility Wind Speed Wind Dir Waves Ship Positions

Kenneth S. Settoon

Owner: Settoon Towing, L.L.C., Pierre Part, LA. More information available from US FCC via Universal Licensing System and Coast Guard Vessel Documentation Center.

Last reported at 2018-Apr-26 01:18 UTC. Time now 2018-Apr-26 03:41 UTC.
Position N 29°36' W 090°40'.

Length 14 m; draft 3 m.

Type: Tug. MMSI: 367186840.

Date/timePositionNaut miles runAvg speedWind from/ knotsBaromVisibWave heightAir tempDewpointWater temp
2018-Apr-26 01:18N 29°36' W 090°40'1 3.6
2018-Apr-26 01:00N 29°35' W 090°38'2 0.1
2018-Apr-24 20:52N 29°35' W 090°36'3 6.7
2018-Apr-24 20:25N 29°36' W 090°39'3 6.7
2018-Apr-24 20:01N 29°37' W 090°42'2 4.2
2018-Apr-24 19:30N 29°35' W 090°43'0 0.0
2018-Apr-24 19:01N 29°35' W 090°43'0 0.0
2018-Apr-24 18:30N 29°35' W 090°43'3 5.2
2018-Apr-24 18:00N 29°33' W 090°45'2 3.6
2018-Apr-24 17:27N 29°32' W 090°47'0 0.1
2018-Apr-24 16:20N 29°32' W 090°47'0 0.0
2018-Apr-24 15:10N 29°32' W 090°47'0 2.1
2018-Apr-24 15:00N 29°32' W 090°47'  
2018-Apr-20 00:38N 29°49' W 092°03'1 5.8
2018-Apr-20 00:27N 29°48' W 092°04'3 6.0
2018-Apr-20 00:00N 29°47' W 092°07'3 6.0
2018-Apr-19 23:30N 29°47' W 092°10'3 6.0
2018-Apr-19 23:00N 29°48' W 092°13'2 4.0
2018-Apr-19 22:30N 29°47' W 092°16'4 0.3
2018-Apr-19 12:01N 29°45' W 092°19'0 6.0
2018-Apr-19 12:00N 29°45' W 092°19'3 5.5
2018-Apr-19 11:30N 29°46' W 092°16'3 5.1
2018-Apr-19 11:01N 29°48' W 092°15'3 5.4
2018-Apr-19 10:30N 29°47' W 092°12'1 2.8
2018-Apr-19 10:00N 29°47' W 092°11'3 5.9
2018-Apr-19 09:30N 29°47' W 092°07'71 5.1
2018-Apr-18 19:33N 29°32' W 090°47'1 6.0
2018-Apr-18 19:27N 29°32' W 090°47'2 5.4
2018-Apr-18 19:00N 29°34' W 090°45'2 3.7
2018-Apr-18 18:30N 29°35' W 090°43'0 0.2
2018-Apr-18 18:01N 29°35' W 090°43'0 0.0
2018-Apr-18 17:30N 29°35' W 090°43'0 0.0
2018-Apr-18 17:01N 29°35' W 090°43'0 0.0
2018-Apr-18 16:31N 29°35' W 090°43'0 0.0
2018-Apr-18 16:00N 29°35' W 090°43'0 0.0
2018-Apr-18 15:31N 29°35' W 090°43'0 0.0
2018-Apr-18 15:01N 29°35' W 090°43'0 0.0
2018-Apr-18 14:31N 29°35' W 090°43'0 0.0
2018-Apr-18 14:01N 29°35' W 090°43'0 0.0
2018-Apr-18 13:31N 29°35' W 090°43'0 0.1
2018-Apr-18 13:01N 29°35' W 090°43'2 4.2
2018-Apr-18 12:31N 29°37' W 090°42'2 4.7
2018-Apr-18 12:00N 29°36' W 090°40'0 0.2
2018-Apr-18 11:30N 29°36' W 090°40'0 0.0
2018-Apr-18 10:16N 29°36' W 090°40'0 0.0
2018-Apr-18 09:56N 29°36' W 090°40'0 0.0
2018-Apr-18 09:30N 29°36' W 090°40'0 0.0
2018-Apr-18 09:00N 29°36' W 090°40'0 0.0
2018-Apr-18 08:30N 29°36' W 090°40'0 0.0
2018-Apr-18 08:00N 29°36' W 090°40'0 0.0
2018-Apr-18 07:31N 29°36' W 090°40'0 0.8
2018-Apr-18 06:59N 29°36' W 090°40'2 4.8
2018-Apr-18 06:30N 29°36' W 090°43'3 5.7
2018-Apr-18 06:00N 29°33' W 090°42'3 5.5
2018-Apr-18 05:31N 29°30' W 090°43'3 0.1
2018-Apr-17 07:31N 29°28' W 090°43'1 8.3
2018-Apr-17 07:28N 29°28' W 090°43'4 8.3
2018-Apr-17 07:01N 29°32' W 090°42'3 5.3
2018-Apr-17 06:30N 29°34' W 090°43'1 1.8
2018-Apr-17 06:01N 29°35' W 090°43'2 3.9
2018-Apr-17 05:30N 29°36' W 090°41'1 0.7
2018-Apr-17 03:50N 29°36' W 090°40'1 2.4
2018-Apr-17 03:28N 29°35' W 090°39'  

Dump ship's entire track history